Norwegian Crown — C6II4 — position and weather

sailwx.info

Track history (hours):
 
Tides and Currents Weather Stations Pressure Air Temp Water Temp Dewpoint Dewpoint Depression Visibility Wind Speed Wind Dir Waves Ship Positions

Norwegian Crown

Operator: Norwegian Cruise Line

Last reported at 2017-Nov-19 03:20 UTC. Time now 2017-Nov-20 09:44 UTC.
Position N 18°09' W 062°06'.

Type: Ship. MMSI: 308785000.

Date/timePositionNaut miles runAvg speedWind from/ knotsBaromVisibWave heightAir tempDewpointWater temp
2017-Nov-19 03:20N 18°09' W 062°06'615.7
2017-Nov-19 02:58N 18°05' W 062°10'715.6
2017-Nov-19 02:30N 17°60' W 062°16'815.4
2017-Nov-19 02:00N 17°55' W 062°22'815.3
2017-Nov-19 01:29N 17°49' W 062°28'715.3
2017-Nov-19 01:00N 17°44' W 062°33'1015.5
2017-Nov-19 00:22N 17°38' W 062°41'615.8
2017-Nov-18 23:59N 17°34' W 062°46'1613.3
2017-Nov-18 22:45N 17°19' W 062°52'914.1
2017-Nov-18 22:07N 17°17' W 062°43'0 0.0
2017-Nov-18 11:04N 17°17' W 062°43'26 5.2
2017-Nov-18 06:07N 16°53' W 062°33'1 7.3
2017-Nov-18 06:00N 16°54' W 062°32'4 7.3
2017-Nov-18 05:29N 16°56' W 062°29'4 7.6
2017-Nov-18 04:59N 16°58' W 062°25'4 7.7
2017-Nov-18 04:29N 16°60' W 062°22'4 7.5
2017-Nov-18 04:00N 17°02' W 062°19'4 7.5
2017-Nov-18 03:28N 17°05' W 062°16'3 7.0
2017-Nov-18 03:00N 17°07' W 062°13'4 7.2
2017-Nov-18 02:30N 17°06' W 062°10'4 7.6
2017-Nov-18 02:00N 17°07' W 062°06'4 8.2
2017-Nov-18 01:30N 17°08' W 062°01'5 9.7
2017-Nov-18 01:00N 17°09' W 061°57'4 7.9
2017-Nov-18 00:30N 17°08' W 061°53'2 3.4
2017-Nov-18 00:00N 17°07' W 061°51'0 0.0
2017-Nov-17 23:30N 17°07' W 061°51'0 0.0
2017-Nov-17 23:00N 17°07' W 061°51'0 0.0
2017-Nov-17 22:30N 17°07' W 061°51'0 0.0
2017-Nov-17 22:00N 17°07' W 061°51'0 0.0
2017-Nov-17 21:30N 17°07' W 061°51'0 0.0
2017-Nov-17 21:00N 17°07' W 061°51'0 0.0
2017-Nov-17 20:30N 17°07' W 061°51'0 0.0
2017-Nov-17 20:00N 17°07' W 061°51'0 0.0
2017-Nov-17 19:30N 17°07' W 061°51'0 0.0
2017-Nov-17 19:00N 17°07' W 061°51'0 0.0
2017-Nov-17 18:30N 17°07' W 061°51'0 0.0
2017-Nov-17 18:00N 17°07' W 061°51'0 0.0
2017-Nov-17 17:30N 17°07' W 061°51'0 0.0
2017-Nov-17 17:00N 17°07' W 061°51'0 0.0
2017-Nov-17 16:30N 17°07' W 061°51'0 0.0
2017-Nov-17 16:00N 17°07' W 061°51'0 0.0
2017-Nov-17 15:30N 17°07' W 061°51'0 0.0
2017-Nov-17 15:00N 17°07' W 061°51'0 0.0
2017-Nov-17 14:30N 17°07' W 061°51'0 0.0
2017-Nov-17 14:00N 17°07' W 061°51'0 0.0
2017-Nov-17 13:30N 17°07' W 061°51'0 0.0
2017-Nov-17 13:00N 17°07' W 061°51'2 4.1
2017-Nov-17 12:30N 17°08' W 061°53'3 6.9
2017-Nov-17 12:01N 17°09' W 061°56'713.3
2017-Nov-17 11:31N 17°04' W 061°60'815.3
2017-Nov-17 11:00N 16°56' W 062°02'815.0
2017-Nov-17 10:31N 16°49' W 062°04'714.6
2017-Nov-17 10:00N 16°42' W 062°06'510.2
2017-Nov-17 09:31N 16°37' W 062°07'510.5
2017-Nov-17 09:00N 16°32' W 062°06'510.4
2017-Nov-17 08:30N 16°27' W 062°05'612.6
2017-Nov-17 08:00N 16°21' W 062°04'714.8
2017-Nov-17 07:30N 16°13' W 062°03'815.2
2017-Nov-17 07:00N 16°06' W 062°01'1015.0
2017-Nov-17 06:21N 15°56' W 061°58'3114.3
2017-Nov-17 04:10N 15°27' W 061°46'1213.8
2017-Nov-17 03:20N 15°17' W 061°42'413.8
2017-Nov-17 03:00N 15°12' W 061°40'2815.2
2017-Nov-17 01:09N 14°46' W 061°29'1415.3
2017-Nov-17 00:15N 14°39' W 061°17'615.4
2017-Nov-16 23:54N 14°37' W 061°12'615.1
2017-Nov-16 23:30N 14°36' W 061°06'2 2.8
2017-Nov-16 22:56N 14°36' W 061°04'0 0.0
2017-Nov-16 22:08N 14°36' W 061°04'0 0.0
2017-Nov-16 21:56N 14°36' W 061°04'0 0.0
2017-Nov-16 21:26N 14°36' W 061°04'0 0.0
2017-Nov-16 20:50N 14°36' W 061°04'0 0.0
2017-Nov-16 18:20N 14°36' W 061°04'0 0.0
2017-Nov-16 17:56N 14°36' W 061°04'0 0.0
2017-Nov-16 17:26N 14°36' W 061°04'0 0.0
2017-Nov-16 16:56N 14°36' W 061°04'0 0.0
2017-Nov-16 16:26N 14°36' W 061°04'0 0.0
2017-Nov-16 15:56N 14°36' W 061°04'0 0.0
2017-Nov-16 15:20N 14°36' W 061°04'0 0.0
2017-Nov-16 14:48N 14°36' W 061°04'1 2.5
2017-Nov-16 14:30N 14°36' W 061°05'612.1
2017-Nov-16 14:01N 14°31' W 061°09'815.8
2017-Nov-16 13:30N 14°24' W 061°12'815.5
2017-Nov-16 13:00N 14°16' W 061°15'  
2017-Nov-12 10:38N 13°37' W 060°56'  
Track history (hours):
 
Tides and Currents Weather Stations Pressure Air Temp Water Temp Dewpoint Dewpoint Depression Visibility Wind Speed Wind Dir Waves Ship Positions

Norwegian Crown

Operator: Norwegian Cruise Line

Last reported at 2017-Nov-19 03:20 UTC. Time now 2017-Nov-20 09:44 UTC.
Position N 18°09' W 062°06'.

Type: Ship. MMSI: 308785000.

Date/timePositionNaut miles runAvg speedWind from/ knotsBaromVisibWave heightAir tempDewpointWater temp
2017-Nov-19 03:20N 18°09' W 062°06'615.7
2017-Nov-19 02:58N 18°05' W 062°10'715.6
2017-Nov-19 02:30N 17°60' W 062°16'815.4
2017-Nov-19 02:00N 17°55' W 062°22'815.3
2017-Nov-19 01:29N 17°49' W 062°28'715.3
2017-Nov-19 01:00N 17°44' W 062°33'1015.5
2017-Nov-19 00:22N 17°38' W 062°41'615.8
2017-Nov-18 23:59N 17°34' W 062°46'1613.3
2017-Nov-18 22:45N 17°19' W 062°52'914.1
2017-Nov-18 22:07N 17°17' W 062°43'0 0.0
2017-Nov-18 11:04N 17°17' W 062°43'26 5.2
2017-Nov-18 06:07N 16°53' W 062°33'1 7.3
2017-Nov-18 06:00N 16°54' W 062°32'4 7.3
2017-Nov-18 05:29N 16°56' W 062°29'4 7.6
2017-Nov-18 04:59N 16°58' W 062°25'4 7.7
2017-Nov-18 04:29N 16°60' W 062°22'4 7.5
2017-Nov-18 04:00N 17°02' W 062°19'4 7.5
2017-Nov-18 03:28N 17°05' W 062°16'3 7.0
2017-Nov-18 03:00N 17°07' W 062°13'4 7.2
2017-Nov-18 02:30N 17°06' W 062°10'4 7.6
2017-Nov-18 02:00N 17°07' W 062°06'4 8.2
2017-Nov-18 01:30N 17°08' W 062°01'5 9.7
2017-Nov-18 01:00N 17°09' W 061°57'4 7.9
2017-Nov-18 00:30N 17°08' W 061°53'2 3.4
2017-Nov-18 00:00N 17°07' W 061°51'0 0.0
2017-Nov-17 23:30N 17°07' W 061°51'0 0.0
2017-Nov-17 23:00N 17°07' W 061°51'0 0.0
2017-Nov-17 22:30N 17°07' W 061°51'0 0.0
2017-Nov-17 22:00N 17°07' W 061°51'0 0.0
2017-Nov-17 21:30N 17°07' W 061°51'0 0.0
2017-Nov-17 21:00N 17°07' W 061°51'0 0.0
2017-Nov-17 20:30N 17°07' W 061°51'0 0.0
2017-Nov-17 20:00N 17°07' W 061°51'0 0.0
2017-Nov-17 19:30N 17°07' W 061°51'0 0.0
2017-Nov-17 19:00N 17°07' W 061°51'0 0.0
2017-Nov-17 18:30N 17°07' W 061°51'0 0.0
2017-Nov-17 18:00N 17°07' W 061°51'0 0.0
2017-Nov-17 17:30N 17°07' W 061°51'0 0.0
2017-Nov-17 17:00N 17°07' W 061°51'0 0.0
2017-Nov-17 16:30N 17°07' W 061°51'0 0.0
2017-Nov-17 16:00N 17°07' W 061°51'0 0.0
2017-Nov-17 15:30N 17°07' W 061°51'0 0.0
2017-Nov-17 15:00N 17°07' W 061°51'0 0.0
2017-Nov-17 14:30N 17°07' W 061°51'0 0.0
2017-Nov-17 14:00N 17°07' W 061°51'0 0.0
2017-Nov-17 13:30N 17°07' W 061°51'0 0.0
2017-Nov-17 13:00N 17°07' W 061°51'2 4.1
2017-Nov-17 12:30N 17°08' W 061°53'3 6.9
2017-Nov-17 12:01N 17°09' W 061°56'713.3
2017-Nov-17 11:31N 17°04' W 061°60'815.3
2017-Nov-17 11:00N 16°56' W 062°02'815.0
2017-Nov-17 10:31N 16°49' W 062°04'714.6
2017-Nov-17 10:00N 16°42' W 062°06'510.2
2017-Nov-17 09:31N 16°37' W 062°07'510.5
2017-Nov-17 09:00N 16°32' W 062°06'510.4
2017-Nov-17 08:30N 16°27' W 062°05'612.6
2017-Nov-17 08:00N 16°21' W 062°04'714.8
2017-Nov-17 07:30N 16°13' W 062°03'815.2
2017-Nov-17 07:00N 16°06' W 062°01'1015.0
2017-Nov-17 06:21N 15°56' W 061°58'3114.3
2017-Nov-17 04:10N 15°27' W 061°46'1213.8
2017-Nov-17 03:20N 15°17' W 061°42'413.8
2017-Nov-17 03:00N 15°12' W 061°40'2815.2
2017-Nov-17 01:09N 14°46' W 061°29'1415.3
2017-Nov-17 00:15N 14°39' W 061°17'615.4
2017-Nov-16 23:54N 14°37' W 061°12'615.1
2017-Nov-16 23:30N 14°36' W 061°06'2 2.8
2017-Nov-16 22:56N 14°36' W 061°04'0 0.0
2017-Nov-16 22:08N 14°36' W 061°04'0 0.0
2017-Nov-16 21:56N 14°36' W 061°04'0 0.0
2017-Nov-16 21:26N 14°36' W 061°04'0 0.0
2017-Nov-16 20:50N 14°36' W 061°04'0 0.0
2017-Nov-16 18:20N 14°36' W 061°04'0 0.0
2017-Nov-16 17:56N 14°36' W 061°04'0 0.0
2017-Nov-16 17:26N 14°36' W 061°04'0 0.0
2017-Nov-16 16:56N 14°36' W 061°04'0 0.0
2017-Nov-16 16:26N 14°36' W 061°04'0 0.0
2017-Nov-16 15:56N 14°36' W 061°04'0 0.0
2017-Nov-16 15:20N 14°36' W 061°04'0 0.0
2017-Nov-16 14:48N 14°36' W 061°04'1 2.5
2017-Nov-16 14:30N 14°36' W 061°05'612.1
2017-Nov-16 14:01N 14°31' W 061°09'815.8
2017-Nov-16 13:30N 14°24' W 061°12'815.5
2017-Nov-16 13:00N 14°16' W 061°15'  
2017-Nov-12 10:38N 13°37' W 060°56'  

Dump ship's entire track history